Time;durP1;ratioP1;P1;durP2;ratioP2;P2;SDS_P1;SDS_P2;PMS_P1;PMS_P2;Temp;Humidity;BMP_temperature;BMP_pressure;BME280_temperature;BME280_humidity;BME280_pressure;Samples;Min_cycle;Max_cycle;Signal;HPM_P1;HPM_P2
2022/05/05 00:01:16;;;;;;;7.95;3.20;;;;;;;10.87;57.24;100044.88;1784896;80;21181;-79
2022/05/05 00:04:22;;;;;;;6.67;2.62;;;;;;;10.81;56.03;100056.53;1784870;80;21185;-79
2022/05/05 00:07:27;;;;;;;12.70;3.40;;;;;;;10.71;55.02;100055.41;1783308;80;21205;-79
2022/05/05 00:17:23;;;;;;;7.53;2.60;;;;;;;10.42;52.18;100065.72;1779256;80;21729;-78
2022/05/05 00:20:31;;;;;;;8.83;3.10;;;;;;;10.33;51.79;100072.27;1779549;80;21180;-79
2022/05/05 00:23:37;;;;;;;3.75;2.47;;;;;;;10.23;51.72;100071.11;1779266;80;21411;-79
2022/05/05 00:26:43;;;;;;;7.35;2.80;;;;;;;10.15;51.80;100073.88;1779303;80;21161;-79
2022/05/05 00:29:54;;;;;;;4.55;2.50;;;;;;;10.09;52.40;100086.05;1779353;80;21177;-79
2022/05/05 00:32:59;;;;;;;8.88;2.58;;;;;;;10.00;52.80;100082.50;1779387;80;21735;-79
2022/05/05 00:36:05;;;;;;;8.98;2.60;;;;;;;9.92;53.05;100084.75;1779182;80;21224;-79
2022/05/05 00:39:14;;;;;;;3.17;2.25;;;;;;;9.85;53.64;100092.48;1777788;80;21724;-79
2022/05/05 00:42:21;;;;;;;4.40;2.08;;;;;;;9.78;53.82;100086.01;1779136;80;21185;-79
2022/05/05 00:45:26;;;;;;;11.57;2.55;;;;;;;9.71;54.37;100100.38;1779229;80;21731;-79
2022/05/05 00:48:33;;;;;;;12.30;3.00;;;;;;;9.63;54.73;100090.84;1778658;80;21264;-78
2022/05/05 00:51:38;;;;;;;9.48;2.52;;;;;;;9.55;55.17;100099.56;1779324;80;21597;-79
2022/05/05 00:54:45;;;;;;;17.57;2.90;;;;;;;9.47;55.33;100102.67;1779302;80;21229;-79
2022/05/05 00:57:52;;;;;;;11.35;2.58;;;;;;;9.38;55.69;100100.98;1779311;80;21180;-79
2022/05/05 01:00:52;;;;;;;11.12;3.05;;;;;;;9.27;55.51;100098.63;1777903;80;21185;-79
2022/05/05 01:03:58;;;;;;;7.33;2.80;;;;;;;9.19;55.22;100109.55;1779228;80;21157;-79
2022/05/05 01:07:06;;;;;;;11.78;2.90;;;;;;;9.10;54.79;100114.67;1779228;80;21177;-79
2022/05/05 01:10:12;;;;;;;17.35;2.95;;;;;;;9.03;54.38;100119.94;1779016;80;21212;-78
2022/05/05 01:13:18;;;;;;;9.23;2.70;;;;;;;8.95;54.17;100127.63;1773826;80;21209;-79
2022/05/05 01:16:25;;;;;;;8.55;2.37;;;;;;;8.87;54.18;100122.16;1771054;81;21182;-78
2022/05/05 01:19:30;;;;;;;8.15;3.33;;;;;;;8.81;54.14;100122.00;1770243;81;21329;-81
2022/05/05 01:22:37;;;;;;;5.20;2.60;;;;;;;8.75;54.17;100130.36;1770991;81;21181;-81
2022/05/05 01:29:06;;;;;;;6.72;3.05;;;;;;;8.59;53.80;100122.98;1770376;81;21217;-79
2022/05/05 01:32:06;;;;;;;9.10;2.77;;;;;;;8.53;53.65;100135.09;1771502;81;21154;-78
2022/05/05 01:35:11;;;;;;;6.28;2.35;;;;;;;8.47;53.59;100139.82;1771031;81;21232;-79
2022/05/05 01:38:21;;;;;;;13.60;2.95;;;;;;;8.41;53.78;100144.08;1771187;81;21194;-79
2022/05/05 01:41:27;;;;;;;13.85;3.05;;;;;;;8.36;53.72;100142.33;1770898;81;21209;-78
2022/05/05 01:44:34;;;;;;;12.75;3.10;;;;;;;8.30;53.92;100143.84;1771275;81;21173;-78
2022/05/05 01:47:41;;;;;;;5.35;2.52;;;;;;;8.25;54.04;100141.28;1771236;81;21178;-79
2022/05/05 01:50:48;;;;;;;5.40;2.55;;;;;;;8.19;54.15;100157.28;1769941;80;21181;-79
2022/05/05 01:53:53;;;;;;;10.20;3.33;;;;;;;8.14;54.26;100161.52;1769819;81;21177;-78
2022/05/05 01:56:59;;;;;;;6.85;2.75;;;;;;;8.07;54.64;100153.64;1770348;81;21213;-79
2022/05/05 02:00:05;;;;;;;7.80;2.98;;;;;;;8.01;54.71;100165.20;1770264;81;21205;-79
2022/05/05 02:03:14;;;;;;;4.37;2.67;;;;;;;7.96;54.85;100164.84;1771265;81;21178;-79
2022/05/05 02:06:19;;;;;;;4.45;2.58;;;;;;;7.92;54.98;100169.75;1771289;81;21178;-80
2022/05/05 02:09:23;;;;;;;6.00;2.77;;;;;;;7.88;55.31;100174.66;1770879;81;21513;-79
2022/05/05 02:12:30;;;;;;;13.10;3.20;;;;;;;7.84;55.57;100199.14;1770067;81;21229;-79
2022/05/05 02:15:35;;;;;;;10.35;3.00;;;;;;;7.81;55.63;100168.17;1784534;80;21197;-79
2022/05/05 02:18:41;;;;;;;7.83;2.80;;;;;;;7.79;55.93;100181.08;1784492;80;21174;-80
2022/05/05 02:21:46;;;;;;;8.65;2.85;;;;;;;7.78;55.88;100186.19;1784700;80;21145;-80
2022/05/05 02:24:52;;;;;;;10.20;2.80;;;;;;;7.77;56.02;100193.16;1784887;80;21221;-79
2022/05/05 02:27:59;;;;;;;8.33;2.70;;;;;;;7.77;56.28;100187.20;1783476;80;21271;-80
2022/05/05 02:31:05;;;;;;;7.60;3.00;;;;;;;7.78;56.50;100195.72;1783308;80;21256;-80
2022/05/05 02:34:11;;;;;;;7.75;3.12;;;;;;;7.81;56.53;100206.30;1784549;80;21157;-80
2022/05/05 02:40:41;;;;;;;13.48;3.12;;;;;;;8.01;56.25;100206.91;1783623;80;21255;-80
2022/05/05 02:43:45;;;;;;;6.17;2.83;;;;;;;8.16;56.05;100211.23;1784463;80;21188;-79
2022/05/05 02:46:52;;;;;;;10.05;2.85;;;;;;;8.29;55.72;100213.00;1784443;80;21181;-80
2022/05/05 02:49:57;;;;;;;10.60;3.05;;;;;;;8.41;55.30;100214.42;1783832;80;21435;-80
2022/05/05 02:54:47;;;;;;;5.45;2.05;;;;;;;8.52;55.31;100222.84;1784324;80;21783;-80
2022/05/05 02:56:11;;;;;;;7.40;2.35;;;;;;;8.62;54.95;100233.09;1784700;80;21181;-78
2022/05/05 02:59:17;;;;;;;7.70;2.42;;;;;;;8.73;54.91;100234.64;1784759;80;21176;-78
2022/05/05 03:02:23;;;;;;;8.20;3.15;;;;;;;8.87;54.58;100230.42;1784786;80;21216;-79
2022/05/05 03:05:24;;;;;;;3.55;2.00;;;;;;;9.05;54.57;100245.30;1783300;80;21176;-79
2022/05/05 03:08:29;;;;;;;10.75;2.67;;;;;;;9.23;54.08;100246.00;1784472;80;21122;-78
2022/05/05 03:11:35;;;;;;;5.75;2.37;;;;;;;9.34;53.88;100248.39;1783295;80;21213;-78
2022/05/05 03:14:46;;;;;;;7.20;2.30;;;;;;;9.40;53.94;100249.06;1779770;80;21411;-78
2022/05/05 03:17:52;;;;;;;5.30;2.12;;;;;;;9.43;54.06;100249.25;1771376;81;21229;-78
2022/05/05 03:20:58;;;;;;;8.33;2.22;;;;;;;9.50;53.97;100257.59;1770347;81;21201;-79
2022/05/05 03:24:03;;;;;;;5.50;1.90;;;;;;;9.57;53.77;100260.00;1771335;81;21205;-79
2022/05/05 03:27:09;;;;;;;6.72;2.60;;;;;;;9.67;53.85;100263.41;1771182;81;21182;-79
2022/05/05 03:30:09;;;;;;;5.10;2.20;;;;;;;9.79;53.60;100272.12;1769852;81;21213;-79
2022/05/05 03:33:15;;;;;;;8.50;1.90;;;;;;;9.96;53.10;100274.63;1771267;81;21198;-79
2022/05/05 03:36:21;;;;;;;4.92;2.12;;;;;;;10.13;52.64;100271.88;1771259;81;21743;-80
2022/05/05 03:39:26;;;;;;;6.25;2.15;;;;;;;10.28;52.62;100271.53;1771382;81;21232;-79
2022/05/05 03:42:34;;;;;;;5.53;1.92;;;;;;;10.42;52.53;100281.73;1771089;81;21268;-80
2022/05/05 03:45:41;;;;;;;6.17;2.50;;;;;;;10.46;52.30;100278.99;1771231;81;21335;-79
2022/05/05 03:48:47;;;;;;;10.80;2.50;;;;;;;10.49;52.01;100277.77;1771209;81;21169;-79
2022/05/05 03:51:56;;;;;;;9.15;2.15;;;;;;;10.49;52.55;100288.22;1770179;81;21221;-79
2022/05/05 03:55:02;;;;;;;3.95;1.98;;;;;;;10.54;52.39;100288.17;1770985;81;21158;-80
2022/05/05 03:58:09;;;;;;;11.05;2.15;;;;;;;10.59;52.16;100288.01;1769729;81;21761;-80
2022/05/05 04:01:14;;;;;;;4.80;1.92;;;;;;;10.57;52.29;100297.41;1769434;81;21248;-80
2022/05/05 04:04:20;;;;;;;9.43;2.25;;;;;;;10.62;52.80;100297.73;1771109;81;21915;-80
2022/05/05 04:07:18;;;;;;;4.70;1.95;;;;;;;10.67;52.33;100302.15;1771323;81;21173;-80
2022/05/05 04:10:24;;;;;;;6.92;1.87;;;;;;;10.73;52.68;100301.46;1771033;81;21503;-80
2022/05/05 04:13:30;;;;;;;6.90;2.15;;;;;;;10.85;52.31;100302.76;1770747;81;21198;-80
2022/05/05 04:16:38;;;;;;;11.10;2.22;;;;;;;11.00;52.07;100299.59;1778296;80;21259;-80
2022/05/05 04:19:44;;;;;;;13.08;1.80;;;;;;;11.07;51.50;100301.63;1783516;80;21792;-80
2022/05/05 04:22:50;;;;;;;4.92;2.08;;;;;;;11.14;51.69;100314.92;1783638;80;21188;-80
2022/05/05 04:25:56;;;;;;;6.55;2.08;;;;;;;11.27;51.91;100301.50;1784783;80;21236;-79
2022/05/05 04:29:00;;;;;;;6.90;2.10;;;;;;;11.33;50.65;100320.45;1784309;80;21220;-79
2022/05/05 04:31:49;;;;;;;5.10;2.08;;;;;;;11.29;51.16;100319.11;1784150;80;21224;-79
2022/05/05 04:34:35;;;;;;;10.85;2.33;;;;;;;11.32;51.54;100322.86;1769514;80;21189;-79
2022/05/05 04:37:41;;;;;;;18.70;2.55;;;;;;;11.32;51.18;100315.50;1784501;80;21189;-79
2022/05/05 04:40:49;;;;;;;11.78;1.87;;;;;;;11.30;51.21;100327.69;1783987;80;21200;-79
2022/05/05 04:43:55;;;;;;;5.03;1.80;;;;;;;11.32;52.17;100320.98;1785559;79;21213;-79
2022/05/05 04:47:02;;;;;;;4.62;1.62;;;;;;;11.39;52.45;100321.97;1783435;80;21161;-78
2022/05/05 04:50:07;;;;;;;4.55;1.65;;;;;;;11.51;51.73;100349.26;1789519;79;21695;-79
2022/05/05 04:53:13;;;;;;;9.75;2.25;;;;;;;11.58;52.27;100338.97;1802206;79;21145;-79
2022/05/05 04:56:20;;;;;;;4.00;1.65;;;;;;;11.64;52.50;100344.55;1784929;79;21165;-79
2022/05/05 04:59:25;;;;;;;5.45;2.02;;;;;;;11.74;51.43;100347.05;1787113;79;21204;-79
2022/05/05 05:02:32;;;;;;;11.55;2.20;;;;;;;11.74;51.59;100350.64;1811700;79;21180;-79
2022/05/05 05:05:37;;;;;;;6.03;1.45;;;;;;;11.78;52.30;100347.88;1808120;79;21950;-79
2022/05/05 05:08:45;;;;;;;7.20;2.27;;;;;;;11.87;51.50;100365.14;1793237;79;21212;-80
2022/05/05 05:11:50;;;;;;;6.60;2.10;;;;;;;11.90;51.39;100349.71;1787284;79;21221;-79
2022/05/05 05:14:57;;;;;;;6.90;2.20;;;;;;;11.93;51.62;100356.17;1811822;79;21264;-80
2022/05/05 05:18:06;;;;;;;5.97;2.10;;;;;;;11.96;52.98;100366.78;1793662;79;21213;-79
2022/05/05 05:21:13;;;;;;;6.85;2.00;;;;;;;12.06;53.25;100364.30;1816411;79;21170;-80
2022/05/05 05:24:19;;;;;;;13.25;2.22;;;;;;;12.15;52.02;100365.94;1790888;79;21193;-79
2022/05/05 05:27:26;;;;;;;6.85;2.30;;;;;;;12.17;51.31;100366.59;1791879;79;21771;-79
2022/05/05 05:30:33;;;;;;;12.75;2.10;;;;;;;12.15;51.43;100394.73;1814980;79;21767;-79
2022/05/05 05:33:39;;;;;;;3.47;2.17;;;;;;;12.07;52.08;100376.97;1800229;79;21255;-79
2022/05/05 05:36:46;;;;;;;13.65;2.72;;;;;;;12.02;52.50;100376.16;1799184;79;21145;-79
2022/05/05 05:39:53;;;;;;;4.60;1.90;;;;;;;12.09;53.15;100382.62;1782068;80;21192;-79
2022/05/05 05:42:58;;;;;;;3.85;2.02;;;;;;;12.21;52.74;100392.61;1808009;79;21957;-78
2022/05/05 05:46:04;;;;;;;5.10;2.00;;;;;;;12.24;52.35;100397.73;1788028;79;21220;-79
2022/05/05 05:49:10;;;;;;;7.20;2.47;;;;;;;12.20;51.75;100398.62;1811235;79;21212;-79
2022/05/05 05:52:15;;;;;;;3.98;2.05;;;;;;;12.23;52.16;100391.41;1814204;79;21170;-80
2022/05/05 05:55:22;;;;;;;12.55;2.10;;;;;;;12.35;52.67;100406.87;1814612;79;21216;-79
2022/05/05 05:58:27;;;;;;;7.95;2.22;;;;;;;12.38;51.76;100402.41;1813556;79;21240;-79
2022/05/05 06:04:56;;;;;;;9.08;2.20;;;;;;;12.50;52.25;100398.67;1782422;79;21221;-79
2022/05/05 06:08:07;;;;;;;7.40;2.08;;;;;;;12.58;52.34;100412.84;1785930;79;21200;-79
2022/05/05 06:11:14;;;;;;;7.30;1.80;;;;;;;12.66;52.49;100408.66;1796339;79;21291;-79
2022/05/05 06:14:20;;;;;;;6.15;2.05;;;;;;;12.76;52.07;100418.83;1799515;79;21816;-79
2022/05/05 06:17:26;;;;;;;11.43;2.50;;;;;;;12.86;52.17;100427.64;1789547;79;21169;-81
2022/05/05 06:20:26;;;;;;;7.60;2.08;;;;;;;12.97;51.50;100427.69;1779645;79;21610;-80
2022/05/05 06:23:18;;;;;;;14.00;2.35;;;;;;;13.02;50.57;100427.97;1770608;79;21169;-80
2022/05/05 06:26:23;;;;;;;11.05;2.33;;;;;;;13.06;51.11;100433.41;1779988;79;21733;-79
2022/05/05 06:29:30;;;;;;;8.38;2.45;;;;;;;13.20;52.78;100439.95;1781304;79;21141;-79
2022/05/05 06:32:35;;;;;;;16.20;2.58;;;;;;;13.27;50.62;100436.81;1792523;79;21162;-80
2022/05/05 06:35:42;;;;;;;7.47;2.20;;;;;;;13.28;50.26;100434.39;1784699;79;21197;-79
2022/05/05 06:38:48;;;;;;;7.20;2.67;;;;;;;13.29;49.97;100453.42;1796641;79;21236;-80
2022/05/05 06:41:55;;;;;;;6.80;2.22;;;;;;;13.30;50.00;100454.27;1795259;79;21255;-80
2022/05/05 06:45:03;;;;;;;5.10;2.17;;;;;;;13.30;50.10;100448.25;1785647;79;21179;-79
2022/05/05 06:48:09;;;;;;;17.40;2.98;;;;;;;13.33;50.86;100441.53;1768030;81;21247;-80
2022/05/05 06:51:15;;;;;;;7.05;2.27;;;;;;;13.44;50.94;100445.16;1769154;79;21195;-79
2022/05/05 06:54:20;;;;;;;15.30;2.12;;;;;;;13.59;49.52;100450.63;1768770;79;21373;-79
2022/05/05 06:57:26;;;;;;;6.40;2.22;;;;;;;13.72;49.53;100458.19;1783663;79;22256;-80
2022/05/05 07:05:23;;;;;;;10.75;2.10;;;;;;;13.68;47.86;100497.57;1742129;79;21190;-80
2022/05/05 07:07:02;;;;;;;10.63;2.05;;;;;;;13.61;48.57;100476.03;1768089;81;21315;-80
2022/05/05 07:13:33;;;;;;;5.12;1.77;;;;;;;13.76;49.36;100502.13;1766775;81;21768;-80
2022/05/05 07:16:39;;;;;;;6.75;1.80;;;;;;;13.80;47.55;100478.70;1767779;81;21272;-79
2022/05/05 07:19:45;;;;;;;6.20;1.98;;;;;;;13.79;47.99;100496.25;1766345;79;21765;-79
2022/05/05 07:22:51;;;;;;;9.40;2.00;;;;;;;13.85;49.51;100506.46;1770153;79;21178;-79
2022/05/05 07:26:00;;;;;;;8.20;1.70;;;;;;;13.93;47.26;100493.98;1792881;79;21178;-80
2022/05/05 07:29:07;;;;;;;6.70;2.33;;;;;;;13.91;47.33;100491.94;1782446;79;21170;-80
2022/05/05 07:32:13;;;;;;;14.40;2.27;;;;;;;13.86;46.56;100503.19;1772784;79;21165;-80
2022/05/05 07:35:19;;;;;;;15.78;3.17;;;;;;;13.89;47.01;100502.28;1768759;79;21209;-80
2022/05/05 07:38:24;;;;;;;8.43;2.02;;;;;;;13.84;46.60;100497.89;1767722;80;21183;-79
2022/05/05 07:41:22;;;;;;;7.50;1.77;;;;;;;13.82;47.50;100517.84;1771984;79;21221;-80
2022/05/05 07:44:16;;;;;;;11.40;1.80;;;;;;;13.88;47.46;100501.08;1781637;79;21245;-80
2022/05/05 07:47:21;;;;;;;7.17;1.60;;;;;;;13.95;48.09;100502.03;1777393;79;21332;-79
2022/05/05 07:50:27;;;;;;;12.03;2.20;;;;;;;14.05;46.67;100512.19;1788410;79;21185;-79
2022/05/05 07:53:33;;;;;;;5.25;1.72;;;;;;;14.02;46.95;100509.33;1799821;79;21162;-79
2022/05/05 07:56:39;;;;;;;9.68;2.10;;;;;;;14.02;46.93;100518.07;1769243;79;21173;-79
2022/05/05 07:59:45;;;;;;;14.70;2.33;;;;;;;14.08;47.42;100506.31;1770262;79;21206;-80
2022/05/05 08:02:54;;;;;;;6.95;2.10;;;;;;;14.11;46.74;100509.18;1779486;79;21259;-80
2022/05/05 08:06:04;;;;;;;13.00;2.65;;;;;;;14.17;47.20;100505.15;1776294;79;21143;-80
2022/05/05 08:09:08;;;;;;;10.50;3.72;;;;;;;14.19;46.25;100513.20;1769589;81;21189;-79
2022/05/05 08:12:16;;;;;;;13.58;4.75;;;;;;;14.16;45.77;100509.45;1768424;79;21173;-79
2022/05/05 08:15:22;;;;;;;12.98;3.42;;;;;;;14.12;46.51;100508.16;1783507;79;21201;-79
2022/05/05 08:18:27;;;;;;;10.13;2.55;;;;;;;14.24;47.41;100505.20;1778633;79;21764;-80
2022/05/05 08:21:33;;;;;;;9.75;3.70;;;;;;;14.40;46.63;100515.97;1787356;79;21185;-80
2022/05/05 08:31:25;;;;;;;13.62;2.67;;;;;;;14.46;44.85;100540.47;1799177;79;21212;-80
2022/05/05 08:34:30;;;;;;;3.95;2.25;;;;;;;14.52;45.13;100517.70;1795204;79;21180;-80
2022/05/05 08:37:36;;;;;;;14.58;2.75;;;;;;;14.51;44.64;100515.47;1781532;79;21248;-79
2022/05/05 08:40:42;;;;;;;11.08;2.58;;;;;;;14.54;45.41;100519.22;1795091;79;21664;-79
2022/05/05 08:43:48;;;;;;;9.93;2.20;;;;;;;14.53;43.03;100534.00;1792490;77;21152;-80
2022/05/05 08:46:58;;;;;;;10.32;2.27;;;;;;;14.46;42.58;100518.45;1796276;77;21807;-79
2022/05/05 08:50:06;;;;;;;10.38;2.50;;;;;;;14.37;44.08;100508.09;1800049;77;21165;-80
2022/05/05 08:53:27;;;;;;;8.83;2.15;;;;;;;14.45;43.49;100542.91;1789221;79;21236;-80
2022/05/05 08:56:33;;;;;;;6.03;1.80;;;;;;;14.50;44.67;100519.28;1778235;79;21114;-79
2022/05/05 08:59:40;;;;;;;5.90;1.95;;;;;;;14.56;43.88;100525.36;1813734;79;21185;-80
2022/05/05 09:02:47;;;;;;;8.78;2.05;;;;;;;14.62;43.15;100519.59;1800516;79;21871;-80
2022/05/05 09:05:56;;;;;;;6.05;2.10;;;;;;;14.65;43.90;100527.45;1780404;79;21254;-80
2022/05/05 09:09:03;;;;;;;10.40;1.90;;;;;;;14.69;41.54;100529.30;1791078;79;21176;-80
2022/05/05 09:12:23;;;;;;;5.42;1.80;;;;;;;14.66;41.13;100526.41;1812520;79;21185;-80
2022/05/05 09:15:28;;;;;;;8.05;2.02;;;;;;;14.65;42.24;100546.73;1783482;79;21224;-80
2022/05/05 09:18:36;;;;;;;4.90;1.60;;;;;;;14.63;40.91;100539.17;1764364;79;21224;-79
2022/05/05 09:21:41;;;;;;;5.28;1.60;;;;;;;14.61;39.54;100535.78;1792996;78;21217;-80
2022/05/05 09:24:53;;;;;;;4.80;1.65;;;;;;;14.62;39.55;100552.62;1742029;81;21198;-79
2022/05/05 09:27:57;;;;;;;9.45;1.87;;;;;;;14.63;41.24;100574.11;1774679;79;21446;-79
2022/05/05 09:31:04;;;;;;;8.33;1.67;;;;;;;14.68;40.43;100560.11;1791069;79;21169;-79
2022/05/05 09:34:10;;;;;;;7.10;1.72;;;;;;;14.74;38.66;100565.34;1744456;81;21193;-79
2022/05/05 09:37:28;;;;;;;3.77;1.40;;;;;;;14.71;38.98;100553.34;1777281;79;21613;-80
2022/05/05 09:40:33;;;;;;;15.15;2.00;;;;;;;14.70;39.58;100557.16;1784369;79;21757;-80
2022/05/05 09:43:40;;;;;;;10.08;1.77;;;;;;;14.76;39.04;100564.61;1798160;79;21146;-79
2022/05/05 09:46:46;;;;;;;4.25;1.30;;;;;;;14.77;38.12;100561.69;1796622;79;21335;-80
2022/05/05 09:50:07;;;;;;;6.33;1.55;;;;;;;14.78;38.48;100563.91;1785669;79;21157;-80
2022/05/05 10:00:09;;;;;;;19.00;1.60;;;;;;;14.96;38.52;100564.28;1793388;78;21158;-80
2022/05/05 10:06:43;;;;;;;5.67;1.25;;;;;;;15.02;37.81;100565.39;1772195;78;21161;-79
2022/05/05 10:09:50;;;;;;;5.20;1.05;;;;;;;15.03;36.76;100605.65;1785410;78;21595;-79
2022/05/05 10:12:57;;;;;;;6.22;1.62;;;;;;;14.99;37.45;100589.19;1783138;79;21214;-80
2022/05/05 10:16:03;;;;;;;2.33;1.07;;;;;;;14.98;37.23;100577.32;1797360;79;21166;-80
2022/05/05 10:19:09;;;;;;;3.20;1.22;;;;;;;15.10;39.41;100585.87;1793239;78;21636;-80
2022/05/05 10:22:20;;;;;;;6.40;1.52;;;;;;;15.29;36.97;100582.95;1786399;78;21208;-80
2022/05/05 10:25:27;;;;;;;;;;;;;;;15.28;36.87;100586.77;1789021;79;21240;-80
2022/05/05 10:28:50;;;;;;;6.00;1.80;;;;;;;15.18;35.94;100572.50;1788734;79;20221;-79
2022/05/05 10:31:56;;;;;;;13.65;2.12;;;;;;;15.13;36.41;100579.13;1800268;79;21228;-79
2022/05/05 10:35:22;;;;;;;2.58;1.00;;;;;;;15.10;35.48;100565.22;1796187;79;21173;-79
2022/05/05 10:38:49;;;;;;;9.63;1.57;;;;;;;15.16;37.31;100580.13;1814853;79;21208;-80
2022/05/05 10:41:55;;;;;;;3.42;1.27;;;;;;;15.22;37.14;100576.56;1793619;77;21197;-79
2022/05/05 10:45:18;;;;;;;3.02;1.35;;;;;;;15.32;35.24;100588.08;1800093;77;21176;-79
2022/05/05 10:48:38;;;;;;;9.00;1.70;;;;;;;15.26;35.80;100576.48;1797187;77;21124;-80
2022/05/05 10:51:43;;;;;;;3.40;1.12;;;;;;;15.20;36.86;100585.03;1790309;77;21170;-79
2022/05/05 10:54:53;;;;;;;4.85;1.40;;;;;;;15.23;37.01;100607.19;1792083;77;21240;-80
2022/05/05 10:57:58;;;;;;;10.18;1.30;;;;;;;15.30;37.66;100603.98;1788756;77;21192;-80
2022/05/05 11:01:05;;;;;;;5.40;1.40;;;;;;;15.34;36.45;100601.16;1764431;80;21771;-79
2022/05/05 11:04:29;;;;;;;10.72;1.30;;;;;;;15.32;36.22;100593.59;1757640;81;21178;-80
2022/05/05 11:07:36;;;;;;;7.97;1.40;;;;;;;15.30;35.58;100595.18;1731090;81;21252;-79
2022/05/05 11:11:41;;;;;;;2.92;1.17;;;;;;;15.30;36.83;100595.70;1764790;81;21197;-79
2022/05/05 11:21:31;;;;;;;3.95;1.27;;;;;;;15.32;34.54;100597.72;1750401;81;21788;-87
2022/05/05 11:23:57;;;;;;;14.53;1.87;;;;;;;15.36;35.37;100596.28;1725541;83;21281;-80
2022/05/05 11:27:03;;;;;;;2.90;1.00;;;;;;;15.39;33.54;100605.53;1733866;82;21228;-80
2022/05/05 11:30:11;;;;;;;12.82;1.60;;;;;;;15.32;34.65;100614.27;1725046;81;21416;-80
2022/05/05 11:33:17;;;;;;;2.50;1.10;;;;;;;15.31;35.52;100598.78;1742216;81;21229;-80
2022/05/05 11:36:22;;;;;;;4.17;1.15;;;;;;;15.38;35.70;100587.80;1731942;82;21216;-79
2022/05/05 11:39:30;;;;;;;2.47;1.10;;;;;;;15.42;32.92;100601.50;1732452;81;21217;-79
2022/05/05 11:44:14;;;;;;;6.33;1.25;;;;;;;15.42;35.43;100608.39;1738777;82;21252;-78
2022/05/05 11:45:43;;;;;;;7.15;1.15;;;;;;;15.48;34.01;100611.22;1729006;81;21274;-80
2022/05/05 11:48:52;;;;;;;11.00;1.40;;;;;;;15.52;33.84;100601.47;1723460;82;21239;-80
2022/05/05 11:54:49;;;;;;;2.58;1.10;;;;;;;15.58;33.88;100621.89;1859573;76;28498;-79
2022/05/05 11:57:55;;;;;;;3.35;1.30;;;;;;;15.56;33.32;100610.19;1811382;79;21185;-80
2022/05/05 12:04:25;;;;;;;1.95;1.20;;;;;;;15.55;33.37;100609.34;1813732;79;22051;-80
2022/05/05 12:07:32;;;;;;;2.47;1.20;;;;;;;15.53;33.46;100618.36;1811250;79;21177;-80
2022/05/05 12:10:43;;;;;;;1.60;1.00;;;;;;;15.54;34.58;100606.27;1815283;79;21791;-80
2022/05/05 12:13:50;;;;;;;5.40;1.17;;;;;;;15.56;33.18;100609.66;1830337;77;21212;-79
2022/05/05 12:16:55;;;;;;;3.50;1.30;;;;;;;15.55;32.65;100609.34;1778284;80;21871;-80
2022/05/05 12:20:10;;;;;;;4.87;1.57;;;;;;;15.54;32.85;100613.16;1776525;80;21237;-80
2022/05/05 12:23:13;;;;;;;2.47;1.17;;;;;;;15.53;33.54;100616.98;1753818;80;21295;-80
2022/05/05 12:26:19;;;;;;;5.60;1.52;;;;;;;15.48;33.90;100609.84;1752519;82;21322;-79
2022/05/05 12:29:24;;;;;;;2.15;1.22;;;;;;;15.49;33.48;100620.34;1752589;82;21173;-80
2022/05/05 12:32:31;;;;;;;3.52;1.20;;;;;;;15.49;33.56;100599.66;1752071;80;21243;-80
2022/05/05 12:35:42;;;;;;;3.40;1.10;;;;;;;15.50;32.92;100609.63;1753437;80;21240;-80
2022/05/05 12:38:47;;;;;;;1.62;1.02;;;;;;;15.53;33.26;100614.22;1758873;80;21204;-80
2022/05/05 12:42:05;;;;;;;6.42;1.15;;;;;;;15.54;31.48;100609.55;1732230;80;21239;-79
2022/05/05 12:45:11;;;;;;;4.85;1.10;;;;;;;15.50;31.21;100613.23;1737573;81;21181;-79
2022/05/05 12:48:16;;;;;;;3.25;1.50;;;;;;;15.48;32.53;100624.13;1752653;80;21241;-79
2022/05/05 12:51:23;;;;;;;4.33;1.12;;;;;;;15.48;33.06;100618.11;1721804;82;21208;-79
2022/05/05 13:01:16;;;;;;;3.25;1.30;;;;;;;15.48;32.23;100614.48;1740314;81;21234;-79
2022/05/05 13:04:23;;;;;;;5.62;1.07;;;;;;;15.50;34.15;100614.61;1750292;81;21253;-79
2022/05/05 13:07:30;;;;;;;6.55;0.90;;;;;;;15.56;31.75;100630.34;1740861;81;21794;-79
2022/05/05 13:10:35;;;;;;;5.03;1.20;;;;;;;15.53;32.89;100607.33;1744932;79;21162;-79
2022/05/05 13:13:41;;;;;;;4.37;1.10;;;;;;;15.52;32.51;100623.52;1745710;81;21825;-81
2022/05/05 13:16:47;;;;;;;3.17;1.10;;;;;;;15.53;32.29;100620.27;1737634;81;21210;-81
2022/05/05 13:19:53;;;;;;;4.75;1.25;;;;;;;15.47;32.23;100613.63;1735768;82;21218;-81
2022/05/05 13:23:00;;;;;;;5.67;1.22;;;;;;;15.43;31.99;100618.36;1735880;82;21266;-79
2022/05/05 13:26:05;;;;;;;6.22;1.57;;;;;;;15.39;32.29;100617.94;1727388;81;21179;-79
2022/05/05 13:29:11;;;;;;;2.35;1.15;;;;;;;15.39;32.04;100623.45;1709583;83;21173;-79
2022/05/05 13:32:17;;;;;;;6.00;1.00;;;;;;;15.39;32.54;100628.11;1689217;85;21811;-79
2022/05/05 13:35:22;;;;;;;2.27;1.25;;;;;;;15.38;31.99;100624.47;1710320;83;21807;-79
2022/05/05 13:38:29;;;;;;;2.92;1.05;;;;;;;15.36;31.40;100636.23;1688769;85;21260;-80
2022/05/05 13:41:35;;;;;;;2.62;1.02;;;;;;;15.35;31.06;100641.43;1709121;82;21212;-80
2022/05/05 13:44:41;;;;;;;8.63;1.27;;;;;;;15.29;31.05;100649.09;1710933;83;21511;-80
2022/05/05 13:47:46;;;;;;;5.15;1.10;;;;;;;15.26;30.06;100644.00;1689517;85;21211;-80
2022/05/05 13:50:53;;;;;;;2.90;1.20;;;;;;;15.23;30.45;100626.48;1711355;83;21804;-79
2022/05/05 13:56:44;;;;;;;4.83;1.17;;;;;;;15.24;30.57;100628.17;1848135;76;28100;-80
2022/05/05 13:59:50;;;;;;;2.60;1.30;;;;;;;15.21;30.21;100636.86;1791097;79;21832;-79
2022/05/05 14:02:59;;;;;;;16.70;2.47;;;;;;;15.19;30.25;100645.30;1791449;79;21698;-80
2022/05/05 14:06:06;;;;;;;2.40;1.02;;;;;;;15.17;30.08;100632.80;1814118;79;21636;-80
2022/05/05 14:12:38;;;;;;;2.98;1.30;;;;;;;15.19;30.88;100632.05;1813219;79;21497;-80
2022/05/05 14:15:47;;;;;;;8.00;1.80;;;;;;;15.17;28.84;100635.55;1811858;79;21205;-80
2022/05/05 14:18:53;;;;;;;5.20;1.30;;;;;;;15.14;29.42;100636.78;1746986;82;21716;-80
2022/05/05 14:22:00;;;;;;;3.55;1.20;;;;;;;15.13;30.41;100652.99;1745445;82;21870;-80
2022/05/05 14:25:05;;;;;;;2.52;1.50;;;;;;;15.13;29.84;100652.99;1745696;82;21212;-80
2022/05/05 14:28:12;;;;;;;5.47;2.08;;;;;;;15.12;29.13;100653.20;1779156;80;21260;-79
2022/05/05 14:31:20;;;;;;;5.45;1.15;;;;;;;15.08;29.32;100660.47;1779356;80;21188;-79
2022/05/05 14:34:25;;;;;;;2.65;1.20;;;;;;;15.02;28.03;100647.50;1777540;80;21491;-79
2022/05/05 14:37:32;;;;;;;3.60;1.20;;;;;;;14.96;28.07;100662.06;1779413;80;21222;-79
2022/05/05 14:40:37;;;;;;;6.35;1.67;;;;;;;14.91;28.35;100652.13;1779822;80;21181;-79
2022/05/05 14:43:43;;;;;;;3.08;1.02;;;;;;;14.87;27.49;100660.48;1781886;80;21181;-79
2022/05/05 14:46:49;;;;;;;4.75;1.22;;;;;;;14.85;28.81;100663.94;1781047;80;21197;-79
2022/05/05 14:49:55;;;;;;;2.83;1.25;;;;;;;14.85;27.99;100659.81;1781938;80;21149;-79
2022/05/05 14:53:01;;;;;;;1.52;1.02;;;;;;;14.83;28.09;100673.78;1781823;80;22041;-79
2022/05/05 14:56:08;;;;;;;2.85;1.40;;;;;;;14.80;28.22;100659.55;1778941;80;21260;-79
2022/05/05 14:59:14;;;;;;;7.22;1.10;;;;;;;14.77;27.84;100664.06;1775408;80;21205;-79
2022/05/05 15:02:19;;;;;;;4.25;1.35;;;;;;;14.75;29.20;100659.28;1776581;80;21903;-80
2022/05/05 15:05:24;;;;;;;4.10;1.22;;;;;;;14.74;29.41;100664.47;1783544;79;21181;-79
2022/05/05 15:08:31;;;;;;;3.77;1.17;;;;;;;14.70;28.35;100670.03;1712199;82;21801;-80
2022/05/05 15:11:37;;;;;;;2.25;1.42;;;;;;;14.64;28.36;100662.03;1712007;82;21791;-80
2022/05/05 15:14:42;;;;;;;3.15;1.30;;;;;;;14.60;28.06;100669.50;1731178;82;21209;-80
2022/05/05 15:17:41;;;;;;;2.15;0.98;;;;;;;14.54;29.18;100676.11;1707233;84;21748;-80
2022/05/05 15:20:34;;;;;;;2.80;1.10;;;;;;;14.47;28.71;100664.12;1723631;83;21185;-80
2022/05/05 15:23:21;;;;;;;6.50;1.17;;;;;;;14.40;29.24;100681.09;1739752;82;21204;-79
2022/05/05 15:26:27;;;;;;;3.37;1.10;;;;;;;14.36;28.96;100678.91;1739494;81;21218;-79
2022/05/05 15:29:34;;;;;;;2.22;1.47;;;;;;;14.31;28.58;100676.73;1739580;82;21177;-80
2022/05/05 15:32:39;;;;;;;7.35;1.30;;;;;;;14.25;28.31;100680.23;1738917;82;21200;-80